sensor_id;sensor_type;location;lat;lon;timestamp;temperature;humidity
71117;SHT31;58775;46.992;9.518;2023-04-01T00:02:00;6.47;95.15
71117;SHT31;58775;46.992;9.518;2023-04-01T00:04:02;6.62;95.34
71117;SHT31;58775;46.992;9.518;2023-04-01T00:06:03;6.52;94.87
71117;SHT31;58775;46.992;9.518;2023-04-01T00:08:04;6.36;95.55
71117;SHT31;58775;46.992;9.518;2023-04-01T00:10:07;6.35;94.90
71117;SHT31;58775;46.992;9.518;2023-04-01T00:12:08;6.52;94.50
71117;SHT31;58775;46.992;9.518;2023-04-01T00:14:09;6.43;95.33
71117;SHT31;58775;46.992;9.518;2023-04-01T00:16:11;6.50;95.05
71117;SHT31;58775;46.992;9.518;2023-04-01T00:18:12;6.72;94.35
71117;SHT31;58775;46.992;9.518;2023-04-01T00:20:14;6.75;94.26
71117;SHT31;58775;46.992;9.518;2023-04-01T00:22:15;6.67;95.21
71117;SHT31;58775;46.992;9.518;2023-04-01T00:24:16;6.76;94.70
71117;SHT31;58775;46.992;9.518;2023-04-01T00:26:17;6.86;94.33
71117;SHT31;58775;46.992;9.518;2023-04-01T00:28:21;6.90;94.26
71117;SHT31;58775;46.992;9.518;2023-04-01T00:30:22;6.97;93.80
71117;SHT31;58775;46.992;9.518;2023-04-01T00:32:23;6.88;94.43
71117;SHT31;58775;46.992;9.518;2023-04-01T00:34:24;6.86;95.21
71117;SHT31;58775;46.992;9.518;2023-04-01T00:36:26;6.80;95.17
71117;SHT31;58775;46.992;9.518;2023-04-01T00:38:27;6.77;95.25
71117;SHT31;58775;46.992;9.518;2023-04-01T00:40:31;6.70;95.46
71117;SHT31;58775;46.992;9.518;2023-04-01T00:42:33;6.65;95.42
71117;SHT31;58775;46.992;9.518;2023-04-01T00:44:36;6.63;95.30
71117;SHT31;58775;46.992;9.518;2023-04-01T00:46:37;6.63;95.61
71117;SHT31;58775;46.992;9.518;2023-04-01T00:48:42;6.69;95.53
71117;SHT31;58775;46.992;9.518;2023-04-01T00:50:49;6.75;95.20
71117;SHT31;58775;46.992;9.518;2023-04-01T00:52:52;6.87;94.57
71117;SHT31;58775;46.992;9.518;2023-04-01T00:54:56;6.86;94.49
71117;SHT31;58775;46.992;9.518;2023-04-01T00:57:04;6.87;94.26
71117;SHT31;58775;46.992;9.518;2023-04-01T00:59:10;6.90;93.50
71117;SHT31;58775;46.992;9.518;2023-04-01T01:01:11;6.87;94.35
71117;SHT31;58775;46.992;9.518;2023-04-01T01:03:13;6.90;94.49
71117;SHT31;58775;46.992;9.518;2023-04-01T01:05:14;6.83;94.59
71117;SHT31;58775;46.992;9.518;2023-04-01T01:09:49;7.00;94.07
71117;SHT31;58775;46.992;9.518;2023-04-01T01:12:03;6.98;92.90
71117;SHT31;58775;46.992;9.518;2023-04-01T01:16:30;6.76;95.23
71117;SHT31;58775;46.992;9.518;2023-04-01T01:18:53;6.72;95.59
71117;SHT31;58775;46.992;9.518;2023-04-01T01:23:52;6.77;95.03
71117;SHT31;58775;46.992;9.518;2023-04-01T01:29:09;6.67;95.10
71117;SHT31;58775;46.992;9.518;2023-04-01T01:31:26;6.62;95.05
71117;SHT31;58775;46.992;9.518;2023-04-01T01:33:35;6.65;95.09
71117;SHT31;58775;46.992;9.518;2023-04-01T01:35:52;6.77;94.82
71117;SHT31;58775;46.992;9.518;2023-04-01T01:38:01;6.84;94.32
71117;SHT31;58775;46.992;9.518;2023-04-01T01:40:06;6.83;94.56
71117;SHT31;58775;46.992;9.518;2023-04-01T01:42:12;6.88;94.56
71117;SHT31;58775;46.992;9.518;2023-04-01T01:44:15;6.88;94.61
71117;SHT31;58775;46.992;9.518;2023-04-01T01:46:23;6.83;94.67
71117;SHT31;58775;46.992;9.518;2023-04-01T01:48:27;6.70;94.51
71117;SHT31;58775;46.992;9.518;2023-04-01T01:50:30;6.67;94.51
71117;SHT31;58775;46.992;9.518;2023-04-01T01:52:32;6.54;95.09
71117;SHT31;58775;46.992;9.518;2023-04-01T01:54:32;6.45;95.11
71117;SHT31;58775;46.992;9.518;2023-04-01T01:56:34;6.53;95.41
71117;SHT31;58775;46.992;9.518;2023-04-01T01:58:47;6.70;94.61
71117;SHT31;58775;46.992;9.518;2023-04-01T02:00:58;6.77;94.18
71117;SHT31;58775;46.992;9.518;2023-04-01T02:03:01;6.90;93.82
71117;SHT31;58775;46.992;9.518;2023-04-01T02:05:04;6.97;92.85
71117;SHT31;58775;46.992;9.518;2023-04-01T02:07:22;6.83;93.97
71117;SHT31;58775;46.992;9.518;2023-04-01T02:09:24;6.67;94.35
71117;SHT31;58775;46.992;9.518;2023-04-01T02:11:57;6.52;95.20
71117;SHT31;58775;46.992;9.518;2023-04-01T02:14:16;6.47;95.51
71117;SHT31;58775;46.992;9.518;2023-04-01T02:16:26;6.49;95.58
71117;SHT31;58775;46.992;9.518;2023-04-01T02:18:33;6.56;95.53
71117;SHT31;58775;46.992;9.518;2023-04-01T02:20:37;6.65;94.96
71117;SHT31;58775;46.992;9.518;2023-04-01T02:22:48;6.72;94.35
71117;SHT31;58775;46.992;9.518;2023-04-01T02:24:53;6.65;94.55
71117;SHT31;58775;46.992;9.518;2023-04-01T02:26:55;6.60;94.70
71117;SHT31;58775;46.992;9.518;2023-04-01T02:28:57;6.65;94.65
71117;SHT31;58775;46.992;9.518;2023-04-01T02:31:00;6.81;93.97
71117;SHT31;58775;46.992;9.518;2023-04-01T02:33:04;6.69;93.47
71117;SHT31;58775;46.992;9.518;2023-04-01T02:35:09;6.54;94.68
71117;SHT31;58775;46.992;9.518;2023-04-01T02:37:12;6.50;94.94
71117;SHT31;58775;46.992;9.518;2023-04-01T02:39:13;6.46;95.32
71117;SHT31;58775;46.992;9.518;2023-04-01T02:41:14;6.59;94.84
71117;SHT31;58775;46.992;9.518;2023-04-01T02:43:16;6.70;94.03
71117;SHT31;58775;46.992;9.518;2023-04-01T02:45:18;6.57;94.40
71117;SHT31;58775;46.992;9.518;2023-04-01T02:47:19;6.53;94.87
71117;SHT31;58775;46.992;9.518;2023-04-01T02:49:19;6.40;95.34
71117;SHT31;58775;46.992;9.518;2023-04-01T02:51:21;6.49;95.26
71117;SHT31;58775;46.992;9.518;2023-04-01T02:53:22;6.53;94.80
71117;SHT31;58775;46.992;9.518;2023-04-01T02:55:23;6.62;94.60
71117;SHT31;58775;46.992;9.518;2023-04-01T02:57:24;6.60;93.98
71117;SHT31;58775;46.992;9.518;2023-04-01T02:59:25;6.57;94.31
71117;SHT31;58775;46.992;9.518;2023-04-01T03:01:26;6.50;94.65
71117;SHT31;58775;46.992;9.518;2023-04-01T03:03:27;6.45;94.77
71117;SHT31;58775;46.992;9.518;2023-04-01T03:05:28;6.45;95.19
71117;SHT31;58775;46.992;9.518;2023-04-01T03:07:29;6.62;94.41
71117;SHT31;58775;46.992;9.518;2023-04-01T03:09:30;6.62;93.94
71117;SHT31;58775;46.992;9.518;2023-04-01T03:11:32;6.59;94.23
71117;SHT31;58775;46.992;9.518;2023-04-01T03:13:33;6.60;93.50
71117;SHT31;58775;46.992;9.518;2023-04-01T03:15:34;6.57;93.88
71117;SHT31;58775;46.992;9.518;2023-04-01T03:17:35;6.57;92.88
71117;SHT31;58775;46.992;9.518;2023-04-01T03:19:36;6.62;93.07
71117;SHT31;58775;46.992;9.518;2023-04-01T03:21:41;6.57;93.47
71117;SHT31;58775;46.992;9.518;2023-04-01T03:23:42;6.60;93.51
71117;SHT31;58775;46.992;9.518;2023-04-01T03:25:43;6.57;93.12
71117;SHT31;58775;46.992;9.518;2023-04-01T03:27:44;6.33;94.15
71117;SHT31;58775;46.992;9.518;2023-04-01T03:29:45;6.21;95.51
71117;SHT31;58775;46.992;9.518;2023-04-01T03:31:47;6.24;94.62
71117;SHT31;58775;46.992;9.518;2023-04-01T03:33:48;6.42;94.17
71117;SHT31;58775;46.992;9.518;2023-04-01T03:35:50;6.22;94.51
71117;SHT31;58775;46.992;9.518;2023-04-01T03:37:53;6.11;95.49
71117;SHT31;58775;46.992;9.518;2023-04-01T03:39:55;6.15;95.06
71117;SHT31;58775;46.992;9.518;2023-04-01T03:41:55;6.28;93.67
71117;SHT31;58775;46.992;9.518;2023-04-01T03:43:58;6.09;93.83
71117;SHT31;58775;46.992;9.518;2023-04-01T03:45:59;6.05;94.76
71117;SHT31;58775;46.992;9.518;2023-04-01T03:48:00;6.09;93.97
71117;SHT31;58775;46.992;9.518;2023-04-01T03:50:02;5.98;95.19
71117;SHT31;58775;46.992;9.518;2023-04-01T03:52:03;5.84;95.54
71117;SHT31;58775;46.992;9.518;2023-04-01T03:54:04;5.73;95.09
71117;SHT31;58775;46.992;9.518;2023-04-01T03:56:07;5.83;95.15
71117;SHT31;58775;46.992;9.518;2023-04-01T03:58:10;6.05;93.76
71117;SHT31;58775;46.992;9.518;2023-04-01T04:00:11;5.79;95.09
71117;SHT31;58775;46.992;9.518;2023-04-01T04:02:17;5.75;95.55
71117;SHT31;58775;46.992;9.518;2023-04-01T04:04:18;5.83;94.38
71117;SHT31;58775;46.992;9.518;2023-04-01T04:06:19;5.91;94.20
71117;SHT31;58775;46.992;9.518;2023-04-01T04:08:21;5.93;95.00
71117;SHT31;58775;46.992;9.518;2023-04-01T04:10:23;5.95;94.43
71117;SHT31;58775;46.992;9.518;2023-04-01T04:12:25;5.98;94.82
71117;SHT31;58775;46.992;9.518;2023-04-01T04:14:27;5.87;94.66
71117;SHT31;58775;46.992;9.518;2023-04-01T04:16:28;5.91;94.05
71117;SHT31;58775;46.992;9.518;2023-04-01T04:18:36;5.91;95.18
71117;SHT31;58775;46.992;9.518;2023-04-01T04:20:46;5.78;94.76
71117;SHT31;58775;46.992;9.518;2023-04-01T04:22:52;5.99;94.17
71117;SHT31;58775;46.992;9.518;2023-04-01T04:24:53;5.93;94.50
71117;SHT31;58775;46.992;9.518;2023-04-01T04:26:54;5.95;94.14
71117;SHT31;58775;46.992;9.518;2023-04-01T04:28:55;6.01;93.87
71117;SHT31;58775;46.992;9.518;2023-04-01T04:30:57;6.01;94.60
71117;SHT31;58775;46.992;9.518;2023-04-01T04:32:58;6.12;93.12
71117;SHT31;58775;46.992;9.518;2023-04-01T04:34:59;6.06;92.57
71117;SHT31;58775;46.992;9.518;2023-04-01T04:37:00;5.93;93.99
71117;SHT31;58775;46.992;9.518;2023-04-01T04:39:05;5.88;94.43
71117;SHT31;58775;46.992;9.518;2023-04-01T04:41:12;5.97;94.60
71117;SHT31;58775;46.992;9.518;2023-04-01T04:43:15;5.90;94.27
71117;SHT31;58775;46.992;9.518;2023-04-01T04:45:18;5.81;94.95
71117;SHT31;58775;46.992;9.518;2023-04-01T04:47:27;5.87;94.36
71117;SHT31;58775;46.992;9.518;2023-04-01T04:49:28;5.85;94.60
71117;SHT31;58775;46.992;9.518;2023-04-01T04:51:30;5.95;94.16
71117;SHT31;58775;46.992;9.518;2023-04-01T04:53:31;5.91;93.90
71117;SHT31;58775;46.992;9.518;2023-04-01T04:55:32;6.06;93.46
71117;SHT31;58775;46.992;9.518;2023-04-01T04:57:59;5.91;94.51
71117;SHT31;58775;46.992;9.518;2023-04-01T05:00:00;5.93;94.51
71117;SHT31;58775;46.992;9.518;2023-04-01T05:02:14;5.83;94.94
71117;SHT31;58775;46.992;9.518;2023-04-01T05:04:15;5.78;95.02
71117;SHT31;58775;46.992;9.518;2023-04-01T05:06:18;5.84;94.42
71117;SHT31;58775;46.992;9.518;2023-04-01T05:08:19;5.84;94.98
71117;SHT31;58775;46.992;9.518;2023-04-01T05:10:21;6.01;94.48
71117;SHT31;58775;46.992;9.518;2023-04-01T05:12:22;5.98;94.60
71117;SHT31;58775;46.992;9.518;2023-04-01T05:14:36;6.06;94.74
71117;SHT31;58775;46.992;9.518;2023-04-01T05:16:43;5.99;94.08
71117;SHT31;58775;46.992;9.518;2023-04-01T05:18:44;5.98;94.64
71117;SHT31;58775;46.992;9.518;2023-04-01T05:20:50;5.95;94.57
71117;SHT31;58775;46.992;9.518;2023-04-01T05:22:56;6.12;93.56
71117;SHT31;58775;46.992;9.518;2023-04-01T05:24:57;6.04;94.15
71117;SHT31;58775;46.992;9.518;2023-04-01T05:26:58;6.04;94.44
71117;SHT31;58775;46.992;9.518;2023-04-01T05:29:00;5.94;95.42
71117;SHT31;58775;46.992;9.518;2023-04-01T05:31:03;6.04;95.13
71117;SHT31;58775;46.992;9.518;2023-04-01T05:33:10;6.22;92.81
71117;SHT31;58775;46.992;9.518;2023-04-01T05:35:12;6.21;93.88
71117;SHT31;58775;46.992;9.518;2023-04-01T05:37:13;6.29;93.52
71117;SHT31;58775;46.992;9.518;2023-04-01T05:39:14;6.22;93.87
71117;SHT31;58775;46.992;9.518;2023-04-01T05:41:15;6.15;94.80
71117;SHT31;58775;46.992;9.518;2023-04-01T05:43:19;6.28;93.83
71117;SHT31;58775;46.992;9.518;2023-04-01T05:45:23;6.22;93.40
71117;SHT31;58775;46.992;9.518;2023-04-01T05:47:55;6.28;94.07
71117;SHT31;58775;46.992;9.518;2023-04-01T05:49:58;6.33;93.39
71117;SHT31;58775;46.992;9.518;2023-04-01T05:52:00;6.43;93.27
71117;SHT31;58775;46.992;9.518;2023-04-01T05:54:04;6.28;94.08
71117;SHT31;58775;46.992;9.518;2023-04-01T05:56:06;6.35;94.55
71117;SHT31;58775;46.992;9.518;2023-04-01T05:58:12;6.43;93.60
71117;SHT31;58775;46.992;9.518;2023-04-01T06:00:17;6.36;94.18
71117;SHT31;58775;46.992;9.518;2023-04-01T06:02:18;6.40;94.14
71117;SHT31;58775;46.992;9.518;2023-04-01T06:04:20;6.40;92.58
71117;SHT31;58775;46.992;9.518;2023-04-01T06:06:26;6.43;91.40
71117;SHT31;58775;46.992;9.518;2023-04-01T06:08:32;6.53;91.85
71117;SHT31;58775;46.992;9.518;2023-04-01T06:13:00;6.69;92.35
71117;SHT31;58775;46.992;9.518;2023-04-01T06:17:48;6.84;91.18
71117;SHT31;58775;46.992;9.518;2023-04-01T06:20:10;6.93;90.88
71117;SHT31;58775;46.992;9.518;2023-04-01T06:22:47;6.90;91.25
71117;SHT31;58775;46.992;9.518;2023-04-01T06:25:01;6.93;91.23
71117;SHT31;58775;46.992;9.518;2023-04-01T06:29:51;6.70;93.79
71117;SHT31;58775;46.992;9.518;2023-04-01T06:41:55;6.79;94.01
71117;SHT31;58775;46.992;9.518;2023-04-01T06:47:26;6.72;94.99
71117;SHT31;58775;46.992;9.518;2023-04-01T06:52:55;6.86;95.60
71117;SHT31;58775;46.992;9.518;2023-04-01T06:55:44;6.93;95.22
71117;SHT31;58775;46.992;9.518;2023-04-01T06:58:21;7.12;93.97
71117;SHT31;58775;46.992;9.518;2023-04-01T07:00:36;7.25;93.14
71117;SHT31;58775;46.992;9.518;2023-04-01T07:02:47;7.31;92.95
71117;SHT31;58775;46.992;9.518;2023-04-01T07:04:55;7.35;93.12
71117;SHT31;58775;46.992;9.518;2023-04-01T07:07:25;7.29;92.66
71117;SHT31;58775;46.992;9.518;2023-04-01T07:09:37;7.48;91.73
71117;SHT31;58775;46.992;9.518;2023-04-01T07:12:02;7.56;91.34
71117;SHT31;58775;46.992;9.518;2023-04-01T07:14:39;7.61;90.98
71117;SHT31;58775;46.992;9.518;2023-04-01T07:17:21;7.70;90.50
71117;SHT31;58775;46.992;9.518;2023-04-01T07:24:44;7.69;93.09
71117;SHT31;58775;46.992;9.518;2023-04-01T07:26:47;7.87;92.59
71117;SHT31;58775;46.992;9.518;2023-04-01T07:28:52;8.16;91.53
71117;SHT31;58775;46.992;9.518;2023-04-01T07:31:36;8.26;91.11
71117;SHT31;58775;46.992;9.518;2023-04-01T07:38:57;8.76;83.55
71117;SHT31;58775;46.992;9.518;2023-04-01T07:41:32;8.85;82.09
71117;SHT31;58775;46.992;9.518;2023-04-01T07:43:48;8.74;82.14
71117;SHT31;58775;46.992;9.518;2023-04-01T07:48:50;8.43;84.95
71117;SHT31;58775;46.992;9.518;2023-04-01T07:51:02;8.50;85.32
71117;SHT31;58775;46.992;9.518;2023-04-01T07:53:36;8.67;85.52
71117;SHT31;58775;46.992;9.518;2023-04-01T07:55:50;8.72;84.77
71117;SHT31;58775;46.992;9.518;2023-04-01T08:00:25;8.54;86.74
71117;SHT31;58775;46.992;9.518;2023-04-01T08:03:09;8.52;85.26
71117;SHT31;58775;46.992;9.518;2023-04-01T08:05:28;8.30;86.04
71117;SHT31;58775;46.992;9.518;2023-04-01T08:07:58;8.31;87.87
71117;SHT31;58775;46.992;9.518;2023-04-01T08:16:06;8.62;85.99
71117;SHT31;58775;46.992;9.518;2023-04-01T08:18:38;8.67;85.51
71117;SHT31;58775;46.992;9.518;2023-04-01T08:22:53;8.72;86.71
71117;SHT31;58775;46.992;9.518;2023-04-01T08:25:16;8.55;90.07
71117;SHT31;58775;46.992;9.518;2023-04-01T08:27:22;8.76;88.60
71117;SHT31;58775;46.992;9.518;2023-04-01T08:29:37;8.88;88.20
71117;SHT31;58775;46.992;9.518;2023-04-01T08:31:48;9.09;84.68
71117;SHT31;58775;46.992;9.518;2023-04-01T08:33:54;9.53;84.32
71117;SHT31;58775;46.992;9.518;2023-04-01T08:36:03;9.66;81.31
71117;SHT31;58775;46.992;9.518;2023-04-01T08:38:13;9.87;80.48
71117;SHT31;58775;46.992;9.518;2023-04-01T08:57:04;10.38;76.04
71117;SHT31;58775;46.992;9.518;2023-04-01T09:02:04;10.41;75.44
71117;SHT31;58775;46.992;9.518;2023-04-01T09:06:48;10.50;75.38
71117;SHT31;58775;46.992;9.518;2023-04-01T09:11:08;10.36;76.15
71117;SHT31;58775;46.992;9.518;2023-04-01T09:16:17;10.12;77.51
71117;SHT31;58775;46.992;9.518;2023-04-01T09:18:55;10.24;78.10
71117;SHT31;58775;46.992;9.518;2023-04-01T09:21:12;10.24;80.05
71117;SHT31;58775;46.992;9.518;2023-04-01T09:23:34;10.29;78.88
71117;SHT31;58775;46.992;9.518;2023-04-01T09:33:13;10.59;79.46
71117;SHT31;58775;46.992;9.518;2023-04-01T09:35:39;10.60;77.94
71117;SHT31;58775;46.992;9.518;2023-04-01T09:38:03;10.59;79.62
71117;SHT31;58775;46.992;9.518;2023-04-01T09:40:37;10.76;78.57
71117;SHT31;58775;46.992;9.518;2023-04-01T09:45:05;11.04;75.86
71117;SHT31;58775;46.992;9.518;2023-04-01T09:49:51;11.23;78.02
71117;SHT31;58775;46.992;9.518;2023-04-01T09:54:30;11.26;79.87
71117;SHT31;58775;46.992;9.518;2023-04-01T09:57:00;11.64;75.79
71117;SHT31;58775;46.992;9.518;2023-04-01T10:04:43;11.62;78.73
71117;SHT31;58775;46.992;9.518;2023-04-01T10:19:29;11.88;74.14
71117;SHT31;58775;46.992;9.518;2023-04-01T10:27:12;11.64;76.35
71117;SHT31;58775;46.992;9.518;2023-04-01T10:34:36;12.25;73.41
71117;SHT31;58775;46.992;9.518;2023-04-01T10:36:53;12.34;73.78
71117;SHT31;58775;46.992;9.518;2023-04-01T10:42:21;11.37;75.25
71117;SHT31;58775;46.992;9.518;2023-04-01T10:45:25;11.77;73.78
71117;SHT31;58775;46.992;9.518;2023-04-01T10:52:07;11.72;73.88
71117;SHT31;58775;46.992;9.518;2023-04-01T10:54:43;11.57;74.75
71117;SHT31;58775;46.992;9.518;2023-04-01T10:57:46;11.42;74.61
71117;SHT31;58775;46.992;9.518;2023-04-01T11:00:40;11.54;75.18
71117;SHT31;58775;46.992;9.518;2023-04-01T11:13:33;11.72;75.92
71117;SHT31;58775;46.992;9.518;2023-04-01T11:16:18;11.65;77.10
71117;SHT31;58775;46.992;9.518;2023-04-01T11:23:22;12.09;73.62
71117;SHT31;58775;46.992;9.518;2023-04-01T11:28:38;11.75;76.08
71117;SHT31;58775;46.992;9.518;2023-04-01T11:33:54;11.81;74.51
71117;SHT31;58775;46.992;9.518;2023-04-01T11:39:14;11.48;78.24
71117;SHT31;58775;46.992;9.518;2023-04-01T11:41:54;11.69;76.19
71117;SHT31;58775;46.992;9.518;2023-04-01T11:44:30;11.72;75.87
71117;SHT31;58775;46.992;9.518;2023-04-01T11:47:20;11.89;73.38
71117;SHT31;58775;46.992;9.518;2023-04-01T11:56:59;12.23;73.61
71117;SHT31;58775;46.992;9.518;2023-04-01T11:59:13;12.10;74.26
71117;SHT31;58775;46.992;9.518;2023-04-01T12:08:40;11.64;77.46
71117;SHT31;58775;46.992;9.518;2023-04-01T12:20:55;12.36;71.72
71117;SHT31;58775;46.992;9.518;2023-04-01T12:27:59;12.03;70.82
71117;SHT31;58775;46.992;9.518;2023-04-01T12:32:27;12.03;70.81
71117;SHT31;58775;46.992;9.518;2023-04-01T12:41:36;11.55;76.89
71117;SHT31;58775;46.992;9.518;2023-04-01T12:43:51;11.41;77.09
71117;SHT31;58775;46.992;9.518;2023-04-01T12:48:32;11.96;73.07
71117;SHT31;58775;46.992;9.518;2023-04-01T12:51:06;11.52;76.50
71117;SHT31;58775;46.992;9.518;2023-04-01T12:55:41;11.52;75.71
71117;SHT31;58775;46.992;9.518;2023-04-01T12:58:16;11.68;74.93
71117;SHT31;58775;46.992;9.518;2023-04-01T13:00:41;11.81;73.01
71117;SHT31;58775;46.992;9.518;2023-04-01T13:05:39;11.42;74.75
71117;SHT31;58775;46.992;9.518;2023-04-01T13:08:07;11.79;73.61
71117;SHT31;58775;46.992;9.518;2023-04-01T13:17:21;11.95;69.18
71117;SHT31;58775;46.992;9.518;2023-04-01T13:19:46;12.09;69.18
71117;SHT31;58775;46.992;9.518;2023-04-01T13:22:11;12.32;67.41
71117;SHT31;58775;46.992;9.518;2023-04-01T13:25:00;12.46;65.42
71117;SHT31;58775;46.992;9.518;2023-04-01T13:29:43;11.88;65.03
71117;SHT31;58775;46.992;9.518;2023-04-01T13:34:56;12.63;64.60
71117;SHT31;58775;46.992;9.518;2023-04-01T13:39:55;13.07;63.76
71117;SHT31;58775;46.992;9.518;2023-04-01T13:42:57;13.19;64.13
71117;SHT31;58775;46.992;9.518;2023-04-01T13:47:02;13.19;63.03
71117;SHT31;58775;46.992;9.518;2023-04-01T13:52:00;13.14;62.61
71117;SHT31;58775;46.992;9.518;2023-04-01T14:04:08;13.52;61.43
71117;SHT31;58775;46.992;9.518;2023-04-01T14:06:51;13.43;62.48
71117;SHT31;58775;46.992;9.518;2023-04-01T14:09:25;13.18;67.17
71117;SHT31;58775;46.992;9.518;2023-04-01T14:13:48;13.16;65.57
71117;SHT31;58775;46.992;9.518;2023-04-01T14:16:22;13.15;64.61
71117;SHT31;58775;46.992;9.518;2023-04-01T14:19:03;13.05;65.06
71117;SHT31;58775;46.992;9.518;2023-04-01T14:21:21;12.97;65.02
71117;SHT31;58775;46.992;9.518;2023-04-01T14:28:18;12.80;66.34
71117;SHT31;58775;46.992;9.518;2023-04-01T14:38:24;12.87;65.46
71117;SHT31;58775;46.992;9.518;2023-04-01T14:40:49;12.87;67.05
71117;SHT31;58775;46.992;9.518;2023-04-01T14:50:51;12.41;65.00
71117;SHT31;58775;46.992;9.518;2023-04-01T14:53:29;12.43;65.27
71117;SHT31;58775;46.992;9.518;2023-04-01T14:55:59;12.71;67.28
71117;SHT31;58775;46.992;9.518;2023-04-01T15:00:16;12.44;69.74
71117;SHT31;58775;46.992;9.518;2023-04-01T15:18:10;12.88;67.09
71117;SHT31;58775;46.992;9.518;2023-04-01T15:22:39;12.60;68.89
71117;SHT31;58775;46.992;9.518;2023-04-01T15:30:14;12.88;65.69
71117;SHT31;58775;46.992;9.518;2023-04-01T15:32:43;12.95;64.99
71117;SHT31;58775;46.992;9.518;2023-04-01T15:35:03;12.90;64.92
71117;SHT31;58775;46.992;9.518;2023-04-01T15:37:37;12.92;65.48
71117;SHT31;58775;46.992;9.518;2023-04-01T15:43:01;13.00;65.92
71117;SHT31;58775;46.992;9.518;2023-04-01T15:47:38;12.92;64.03
71117;SHT31;58775;46.992;9.518;2023-04-01T15:49:47;12.81;64.36
71117;SHT31;58775;46.992;9.518;2023-04-01T15:52:05;12.51;65.67
71117;SHT31;58775;46.992;9.518;2023-04-01T15:54:25;12.51;66.38
71117;SHT31;58775;46.992;9.518;2023-04-01T15:56:49;12.39;66.47
71117;SHT31;58775;46.992;9.518;2023-04-01T15:59:02;12.49;63.76
71117;SHT31;58775;46.992;9.518;2023-04-01T16:01:14;12.34;65.16
71117;SHT31;58775;46.992;9.518;2023-04-01T16:03:34;12.08;67.70
71117;SHT31;58775;46.992;9.518;2023-04-01T16:15:44;11.50;75.60
71117;SHT31;58775;46.992;9.518;2023-04-01T16:18:07;11.44;75.69
71117;SHT31;58775;46.992;9.518;2023-04-01T16:20:20;11.42;75.92
71117;SHT31;58775;46.992;9.518;2023-04-01T16:24:54;11.41;75.79
71117;SHT31;58775;46.992;9.518;2023-04-01T16:29:35;11.04;77.94
71117;SHT31;58775;46.992;9.518;2023-04-01T16:36:54;11.40;71.71
71117;SHT31;58775;46.992;9.518;2023-04-01T16:41:35;11.01;77.62
71117;SHT31;58775;46.992;9.518;2023-04-01T16:48:14;11.11;70.35
71117;SHT31;58775;46.992;9.518;2023-04-01T16:50:25;11.26;70.29
71117;SHT31;58775;46.992;9.518;2023-04-01T16:54:59;11.08;68.32
71117;SHT31;58775;46.992;9.518;2023-04-01T16:57:21;10.69;70.02
71117;SHT31;58775;46.992;9.518;2023-04-01T16:59:33;10.49;71.77
71117;SHT31;58775;46.992;9.518;2023-04-01T17:03:57;10.34;72.58
71117;SHT31;58775;46.992;9.518;2023-04-01T17:06:17;10.38;71.72
71117;SHT31;58775;46.992;9.518;2023-04-01T17:15:26;9.77;83.20
71117;SHT31;58775;46.992;9.518;2023-04-01T17:17:57;9.74;79.20
71117;SHT31;58775;46.992;9.518;2023-04-01T17:25:16;9.02;87.39
71117;SHT31;58775;46.992;9.518;2023-04-01T17:32:39;8.60;87.42
71117;SHT31;58775;46.992;9.518;2023-04-01T17:35:06;8.50;89.81
71117;SHT31;58775;46.992;9.518;2023-04-01T17:39:50;8.30;89.74
71117;SHT31;58775;46.992;9.518;2023-04-01T17:51:40;7.99;89.82
71117;SHT31;58775;46.992;9.518;2023-04-01T17:53:59;8.09;89.08
71117;SHT31;58775;46.992;9.518;2023-04-01T18:08:09;7.73;90.75
71117;SHT31;58775;46.992;9.518;2023-04-01T18:10:11;7.59;90.97
71117;SHT31;58775;46.992;9.518;2023-04-01T18:14:26;7.68;90.75
71117;SHT31;58775;46.992;9.518;2023-04-01T18:16:41;7.63;91.54
71117;SHT31;58775;46.992;9.518;2023-04-01T18:19:02;7.73;90.96
71117;SHT31;58775;46.992;9.518;2023-04-01T18:21:37;7.79;89.98
71117;SHT31;58775;46.992;9.518;2023-04-01T18:23:46;7.82;90.45
71117;SHT31;58775;46.992;9.518;2023-04-01T18:25:53;7.86;89.87
71117;SHT31;58775;46.992;9.518;2023-04-01T18:30:30;7.70;90.58
71117;SHT31;58775;46.992;9.518;2023-04-01T18:37:37;7.87;90.03
71117;SHT31;58775;46.992;9.518;2023-04-01T18:39:41;7.80;91.04
71117;SHT31;58775;46.992;9.518;2023-04-01T18:46:27;7.82;91.23
71117;SHT31;58775;46.992;9.518;2023-04-01T18:48:51;7.90;91.07
71117;SHT31;58775;46.992;9.518;2023-04-01T18:50:56;8.07;86.90
71117;SHT31;58775;46.992;9.518;2023-04-01T18:55:40;8.33;87.71
71117;SHT31;58775;46.992;9.518;2023-04-01T19:00:03;8.13;90.57
71117;SHT31;58775;46.992;9.518;2023-04-01T19:06:34;8.04;89.25
71117;SHT31;58775;46.992;9.518;2023-04-01T19:08:40;7.99;88.26
71117;SHT31;58775;46.992;9.518;2023-04-01T19:11:01;8.04;88.49
71117;SHT31;58775;46.992;9.518;2023-04-01T19:13:30;7.90;89.92
71117;SHT31;58775;46.992;9.518;2023-04-01T19:20:23;7.70;92.97
71117;SHT31;58775;46.992;9.518;2023-04-01T19:25:27;7.61;91.90
71117;SHT31;58775;46.992;9.518;2023-04-01T19:28:00;7.52;93.42
71117;SHT31;58775;46.992;9.518;2023-04-01T19:33:06;7.29;95.23
71117;SHT31;58775;46.992;9.518;2023-04-01T19:43:55;7.35;92.81
71117;SHT31;58775;46.992;9.518;2023-04-01T19:46:24;7.29;92.60
71117;SHT31;58775;46.992;9.518;2023-04-01T19:56:19;7.10;93.44
71117;SHT31;58775;46.992;9.518;2023-04-01T20:00:52;6.79;94.86
71117;SHT31;58775;46.992;9.518;2023-04-01T20:07:44;6.80;93.81
71117;SHT31;58775;46.992;9.518;2023-04-01T20:12:46;6.86;93.87
71117;SHT31;58775;46.992;9.518;2023-04-01T20:14:51;6.79;94.59
71117;SHT31;58775;46.992;9.518;2023-04-01T20:21:45;6.76;94.97
71117;SHT31;58775;46.992;9.518;2023-04-01T20:23:55;6.67;95.24
71117;SHT31;58775;46.992;9.518;2023-04-01T20:26:02;6.54;96.22
71117;SHT31;58775;46.992;9.518;2023-04-01T20:32:54;6.49;96.52
71117;SHT31;58775;46.992;9.518;2023-04-01T20:44:13;6.77;94.84
71117;SHT31;58775;46.992;9.518;2023-04-01T20:51:05;6.62;96.01
71117;SHT31;58775;46.992;9.518;2023-04-01T20:56:09;6.62;96.32
71117;SHT31;58775;46.992;9.518;2023-04-01T21:00:45;6.79;95.64
71117;SHT31;58775;46.992;9.518;2023-04-01T21:03:06;6.94;94.54
71117;SHT31;58775;46.992;9.518;2023-04-01T21:05:31;6.93;94.62
71117;SHT31;58775;46.992;9.518;2023-04-01T21:08:05;6.93;94.53
71117;SHT31;58775;46.992;9.518;2023-04-01T21:10:16;7.01;93.97
71117;SHT31;58775;46.992;9.518;2023-04-01T21:12:56;7.08;93.46
71117;SHT31;58775;46.992;9.518;2023-04-01T21:15:15;7.11;93.46
71117;SHT31;58775;46.992;9.518;2023-04-01T21:24:48;7.04;93.72
71117;SHT31;58775;46.992;9.518;2023-04-01T21:31:50;7.14;93.04
71117;SHT31;58775;46.992;9.518;2023-04-01T21:34:25;6.90;94.41
71117;SHT31;58775;46.992;9.518;2023-04-01T21:55:26;6.57;94.26
71117;SHT31;58775;46.992;9.518;2023-04-01T22:00:29;6.37;94.29
71117;SHT31;58775;46.992;9.518;2023-04-01T22:05:55;6.21;95.15
71117;SHT31;58775;46.992;9.518;2023-04-01T22:10:21;6.37;94.42
71117;SHT31;58775;46.992;9.518;2023-04-01T22:12:47;6.47;93.86
71117;SHT31;58775;46.992;9.518;2023-04-01T22:15:27;6.56;92.78
71117;SHT31;58775;46.992;9.518;2023-04-01T22:17:45;6.47;94.46